Time;durP1;ratioP1;P1;durP2;ratioP2;P2;SDS_P1;SDS_P2;PMS_P1;PMS_P2;Temp;Humidity;BMP_temperature;BMP_pressure;BME280_temperature;BME280_humidity;BME280_pressure;Samples;Min_cycle;Max_cycle;Signal;HPM_P1;HPM_P2
2022/06/24 00:00:57;;;;;;;;;;;;;;;;;;4925616;29;19925;-82
2022/06/24 00:03:23;;;;;;;;;;;;;;;;;;4941167;29;20224;-81
2022/06/24 00:05:49;;;;;;;;;;;;;;;;;;4942272;29;20026;-82
2022/06/24 00:08:15;;;;;;;;;;;;;;;;;;4929146;28;19914;-81
2022/06/24 00:10:43;;;;;;;;;;;;;;;;;;4926766;28;19972;-80
2022/06/24 00:13:08;;;;;;;;;;;;;;;;;;4927559;28;19914;-80
2022/06/24 00:15:34;;;;;;;;;;;;;;;;;;4926959;28;19929;-80
2022/06/24 00:18:00;;;;;;;;;;;;;;;;;;4927286;28;19914;-82
2022/06/24 00:20:25;;;;;;;;;;;;;;;;;;4943693;28;19937;-82
2022/06/24 00:22:50;;;;;;;;;;;;;;;;;;4958665;28;19914;-80
2022/06/24 00:25:16;;;;;;;;;;;;;;;;;;4938253;29;19921;-81
2022/06/24 00:27:42;;;;;;;;;;;;;;;;;;4923043;29;19914;-80
2022/06/24 00:30:08;;;;;;;;;;;;;;;;;;4958397;29;19978;-80
2022/06/24 00:32:34;;;;;;;;;;;;;;;;;;4940960;29;20378;-80
2022/06/24 00:35:00;;;;;;;;;;;;;;;;;;4909283;29;19915;-81
2022/06/24 00:37:25;;;;;;;;;;;;;;;;;;4908890;28;19936;-79
2022/06/24 00:39:51;;;;;;;;;;;;;;;;;;4940716;28;19915;-80
2022/06/24 00:42:16;;;;;;;;;;;;;;;;;;4957747;29;19914;-80
2022/06/24 00:44:42;;;;;;;;;;;;;;;;;;4958207;29;19915;-80
2022/06/24 00:47:07;;;;;;;;;;;;;;;;;;4940108;29;19914;-79
2022/06/24 00:49:33;;;;;;;;;;;;;;;;;;4957494;28;19919;-80
2022/06/24 00:51:59;;;;;;;;;;;;;;;;;;4908818;29;19914;-81
2022/06/24 00:54:24;;;;;;;;;;;;;;;;;;4957689;29;19915;-83
2022/06/24 00:56:49;;;;;;;;;;;;;;;;;;4924831;29;19915;-80
2022/06/24 00:59:15;;;;;;;;;;;;;;;;;;4925091;29;20299;-81
2022/06/24 01:01:41;;;;;;;;;;;;;;;;;;4925084;29;19976;-80
2022/06/24 01:04:10;;;;;;;;;;;;;;;;;;4940589;29;19911;-80
2022/06/24 01:06:36;;;;;;;;;;;;;;;;;;4940106;29;19926;-81
2022/06/24 01:09:01;;;;;;;;;;;;;;;;;;4956940;28;19915;-81
2022/06/24 01:11:27;;;;;;;;;;;;;;;;;;4924161;29;19914;-80
2022/06/24 01:13:52;;;;;;;;;;;;;;;;;;4940030;29;19921;-81
2022/06/24 01:16:18;;;;;;;;;;;;;;;;;;4939575;29;19936;-81
2022/06/24 01:18:44;;;;;;;;;;;;;;;;;;4939683;29;19919;-82
2022/06/24 01:21:10;;;;;;;;;;;;;;;;;;4908496;29;19974;-82
2022/06/24 01:23:36;;;;;;;;;;;;;;;;;;4924246;29;19915;-81
2022/06/24 01:26:01;;;;;;;;;;;;;;;;;;4940223;29;20009;-82
2022/06/24 01:28:27;;;;;;;;;;;;;;;;;;4924672;29;20027;-81
2022/06/24 01:30:52;;;;;;;;;;;;;;;;;;4908253;29;19925;-82
2022/06/24 01:33:18;;;;;;;;;;;;;;;;;;4971766;28;19918;-81
2022/06/24 01:35:44;;;;;;;;;;;;;;;;;;4944551;28;20393;-82
2022/06/24 01:38:10;;;;;;;;;;;;;;;;;;4943620;28;19993;-83
2022/06/24 01:40:41;;;;;;;;;;;;;;;;;;4927205;28;19933;-82
2022/06/24 01:43:10;;;;;;;;;;;;;;;;;;4943331;28;19914;-82
2022/06/24 01:45:36;;;;;;;;;;;;;;;;;;4927598;28;19964;-81
2022/06/24 01:48:01;;;;;;;;;;;;;;;;;;4939661;29;20000;-82
2022/06/24 01:50:27;;;;;;;;;;;;;;;;;;4909047;29;20405;-83
2022/06/24 01:52:52;;;;;;;;;;;;;;;;;;4908906;29;19914;-82
2022/06/24 01:55:18;;;;;;;;;;;;;;;;;;4925634;29;19922;-82
2022/06/24 01:57:47;;;;;;;;;;;;;;;;;;4925094;29;19914;-81
2022/06/24 02:00:12;;;;;;;;;;;;;;;;;;4908939;29;20158;-81
2022/06/24 02:02:38;;;;;;;;;;;;;;;;;;4923695;29;20338;-81
2022/06/24 02:05:04;;;;;;;;;;;;;;;;;;4910695;28;19950;-82
2022/06/24 02:07:29;;;;;;;;;;;;;;;;;;4926484;28;19960;-81
2022/06/24 02:15:24;;;;;;;;;;;;;;;;;;4958442;28;20016;-82
2022/06/24 02:17:49;;;;;;;;;;;;;;;;;;4958015;28;20342;-81
2022/06/24 02:20:17;;;;;;;;;;;;;;;;;;4957806;28;19914;-81
2022/06/24 02:22:43;;;;;;;;;;;;;;;;;;4907226;29;19914;-82
2022/06/24 02:25:08;;;;;;;;;;;;;;;;;;4922729;29;19914;-82
2022/06/24 02:27:34;;;;;;;;;;;;;;;;;;4906743;28;19914;-81
2022/06/24 02:29:59;;;;;;;;;;;;;;;;;;4923011;29;19925;-82
2022/06/24 02:32:25;;;;;;;;;;;;;;;;;;4922968;29;19914;-82
2022/06/24 02:34:50;;;;;;;;;;;;;;;;;;4906834;29;20251;-82
2022/06/24 02:37:16;;;;;;;;;;;;;;;;;;4938249;28;19911;-82
2022/06/24 02:39:41;;;;;;;;;;;;;;;;;;4956411;28;19918;-82
2022/06/24 02:42:10;;;;;;;;;;;;;;;;;;4926535;28;20361;-81
2022/06/24 02:44:36;;;;;;;;;;;;;;;;;;4957502;28;19914;-83
2022/06/24 02:47:01;;;;;;;;;;;;;;;;;;4926194;28;19910;-83
2022/06/24 02:49:27;;;;;;;;;;;;;;;;;;4925685;28;20296;-84
2022/06/24 02:51:53;;;;;;;;;;;;;;;;;;4941346;28;19914;-83
2022/06/24 02:54:18;;;;;;;;;;;;;;;;;;4952319;29;20281;-83
2022/06/24 02:56:44;;;;;;;;;;;;;;;;;;4922565;29;19920;-83
2022/06/24 02:59:09;;;;;;;;;;;;;;;;;;4906708;29;20302;-83
2022/06/24 03:01:35;;;;;;;;;;;;;;;;;;4922366;29;19962;-81
2022/06/24 03:04:04;;;;;;;;;;;;;;;;;;4923070;29;19997;-81
2022/06/24 03:06:30;;;;;;;;;;;;;;;;;;4938723;29;19969;-81
2022/06/24 03:08:55;;;;;;;;;;;;;;;;;;4954906;28;19922;-83
2022/06/24 03:11:20;;;;;;;;;;;;;;;;;;4921821;29;20065;-83
2022/06/24 03:13:46;;;;;;;;;;;;;;;;;;4937673;29;20293;-83
2022/06/24 03:16:12;;;;;;;;;;;;;;;;;;4937645;29;19914;-83
2022/06/24 03:18:37;;;;;;;;;;;;;;;;;;4921811;29;19915;-83
2022/06/24 03:21:05;;;;;;;;;;;;;;;;;;4921364;29;19915;-84
2022/06/24 03:23:30;;;;;;;;;;;;;;;;;;4937666;29;19920;-84
2022/06/24 03:25:56;;;;;;;;;;;;;;;;;;4937538;29;19914;-85
2022/06/24 03:28:22;;;;;;;;;;;;;;;;;;4926475;29;19933;-84
2022/06/24 03:30:47;;;;;;;;;;;;;;;;;;4937230;29;19922;-84
2022/06/24 03:33:13;;;;;;;;;;;;;;;;;;4937489;29;19915;-83
2022/06/24 03:35:38;;;;;;;;;;;;;;;;;;4921387;29;19915;-83
2022/06/24 03:38:04;;;;;;;;;;;;;;;;;;4937621;29;19914;-83
2022/06/24 03:40:30;;;;;;;;;;;;;;;;;;4921550;29;20115;-82
2022/06/24 03:42:55;;;;;;;;;;;;;;;;;;4937302;29;19949;-82
2022/06/24 03:45:21;;;;;;;;;;;;;;;;;;4940236;28;19921;-82
2022/06/24 03:47:47;;;;;;;;;;;;;;;;;;4924970;28;20396;-83
2022/06/24 03:50:13;;;;;;;;;;;;;;;;;;4973663;28;19980;-82
2022/06/24 03:52:38;;;;;;;;;;;;;;;;;;4940776;28;19949;-82
2022/06/24 03:55:04;;;;;;;;;;;;;;;;;;4925440;28;19921;-84
2022/06/24 03:57:30;;;;;;;;;;;;;;;;;;4940540;28;19914;-82
2022/06/24 03:59:55;;;;;;;;;;;;;;;;;;4925048;28;19961;-81
2022/06/24 04:02:23;;;;;;;;;;;;;;;;;;4961067;28;20281;-81
2022/06/24 04:04:49;;;;;;;;;;;;;;;;;;4909662;29;19954;-82
2022/06/24 04:07:14;;;;;;;;;;;;;;;;;;4909948;28;20000;-82
2022/06/24 04:09:40;;;;;;;;;;;;;;;;;;4925727;29;20017;-81
2022/06/24 04:12:06;;;;;;;;;;;;;;;;;;4909469;29;19930;-80
2022/06/24 04:17:16;;;;;;;;;;;;;;;;;;4925241;28;19914;-80
2022/06/24 04:19:41;;;;;;;;;;;;;;;;;;4925371;29;19914;-81
2022/06/24 04:22:07;;;;;;;;;;;;;;;;;;4941093;29;19921;-81
2022/06/24 04:24:33;;;;;;;;;;;;;;;;;;4925149;29;20374;-82
2022/06/24 04:26:58;;;;;;;;;;;;;;;;;;4925119;29;19926;-82
2022/06/24 04:29:24;;;;;;;;;;;;;;;;;;4924560;29;19933;-81
2022/06/24 04:31:50;;;;;;;;;;;;;;;;;;4924720;29;20004;-81
2022/06/24 04:34:16;;;;;;;;;;;;;;;;;;4924909;29;19914;-80
2022/06/24 04:36:41;;;;;;;;;;;;;;;;;;4927541;28;19918;-80
2022/06/24 04:39:07;;;;;;;;;;;;;;;;;;4959558;28;19918;-81
2022/06/24 04:41:33;;;;;;;;;;;;;;;;;;4927903;28;19921;-81
2022/06/24 04:43:59;;;;;;;;;;;;;;;;;;4943476;28;19914;-81
2022/06/24 04:46:25;;;;;;;;;;;;;;;;;;4943669;28;20048;-81
2022/06/24 04:48:50;;;;;;;;;;;;;;;;;;4927537;28;19914;-82
2022/06/24 04:51:16;;;;;;;;;;;;;;;;;;4924278;29;19995;-83
2022/06/24 04:53:42;;;;;;;;;;;;;;;;;;4909836;29;19921;-85
2022/06/24 04:56:08;;;;;;;;;;;;;;;;;;4910427;29;19910;-86
2022/06/24 04:58:34;;;;;;;;;;;;;;;;;;4926007;29;19974;-85
2022/06/24 05:01:00;;;;;;;;;;;;;;;;;;4925006;29;19915;-83
2022/06/24 05:03:26;;;;;;;;;;;;;;;;;;4908766;29;20020;-82
2022/06/24 05:05:52;;;;;;;;;;;;;;;;;;4940883;29;19915;-81
2022/06/24 05:08:18;;;;;;;;;;;;;;;;;;4912439;29;19910;-82
2022/06/24 05:10:44;;;;;;;;;;;;;;;;;;4924222;29;19922;-82
2022/06/24 05:13:09;;;;;;;;;;;;;;;;;;4939981;29;19914;-82
2022/06/24 05:15:35;;;;;;;;;;;;;;;;;;4924326;29;19914;-82
2022/06/24 05:18:01;;;;;;;;;;;;;;;;;;4924133;29;19914;-83
2022/06/24 05:20:26;;;;;;;;;;;;;;;;;;4924712;29;19922;-82
2022/06/24 05:22:52;;;;;;;;;;;;;;;;;;4908706;29;19991;-82
2022/06/24 05:25:17;;;;;;;;;;;;;;;;;;4943087;28;19921;-82
2022/06/24 05:27:47;;;;;;;;;;;;;;;;;;4928404;28;20419;-83
2022/06/24 05:30:13;;;;;;;;;;;;;;;;;;4943391;28;19918;-81
2022/06/24 05:32:38;;;;;;;;;;;;;;;;;;4943493;28;19914;-83
2022/06/24 05:35:06;;;;;;;;;;;;;;;;;;4944375;28;19918;-84
2022/06/24 05:37:32;;;;;;;;;;;;;;;;;;4928382;28;20358;-84
2022/06/24 05:39:57;;;;;;;;;;;;;;;;;;4960418;28;20017;-83
2022/06/24 05:42:22;;;;;;;;;;;;;;;;;;4932345;29;19914;-82
2022/06/24 05:44:48;;;;;;;;;;;;;;;;;;4940129;29;19914;-82
2022/06/24 05:47:14;;;;;;;;;;;;;;;;;;4957019;28;19922;-84
2022/06/24 05:49:39;;;;;;;;;;;;;;;;;;4939949;29;19926;-81
2022/06/24 05:52:05;;;;;;;;;;;;;;;;;;4923952;29;19921;-81
2022/06/24 05:57:19;;;;;;;;;;;;;;;;;;4939522;28;20001;-82
2022/06/24 05:59:44;;;;;;;;;;;;;;;;;;4953964;28;20000;-82
2022/06/24 06:02:10;;;;;;;;;;;;;;;;;;4927434;28;19914;-84
2022/06/24 06:04:36;;;;;;;;;;;;;;;;;;4926861;28;19914;-80
2022/06/24 06:07:02;;;;;;;;;;;;;;;;;;4942832;28;19914;-81
2022/06/24 06:09:28;;;;;;;;;;;;;;;;;;4927160;28;19916;-81
2022/06/24 06:11:54;;;;;;;;;;;;;;;;;;4942541;28;19918;-83
2022/06/24 06:14:20;;;;;;;;;;;;;;;;;;4943036;28;20424;-80
2022/06/24 06:16:47;;;;;;;;;;;;;;;;;;4940115;29;20327;-84
2022/06/24 06:19:12;;;;;;;;;;;;;;;;;;4909264;29;19927;-83
2022/06/24 06:21:38;;;;;;;;;;;;;;;;;;4909201;29;20282;-82
2022/06/24 06:24:07;;;;;;;;;;;;;;;;;;4924331;29;19914;-82
2022/06/24 06:26:33;;;;;;;;;;;;;;;;;;4923654;29;20358;-80
2022/06/24 06:28:58;;;;;;;;;;;;;;;;;;4940020;29;20005;-82
2022/06/24 06:31:24;;;;;;;;;;;;;;;;;;4924452;23;19937;-82
2022/06/24 06:33:49;;;;;;;;;;;;;;;;;;4993717;28;19925;-84
2022/06/24 06:36:15;;;;;;;;;;;;;;;;;;4976626;28;19993;-83
2022/06/24 06:38:41;;;;;;;;;;;;;;;;;;4994179;28;20292;-83
2022/06/24 06:41:06;;;;;;;;;;;;;;;;;;4976141;28;19922;-82
2022/06/24 06:43:32;;;;;;;;;;;;;;;;;;4993905;28;19921;-82
2022/06/24 06:45:57;;;;;;;;;;;;;;;;;;4976613;28;19921;-80
2022/06/24 06:48:22;;;;;;;;;;;;;;;;;;4984313;28;20338;-80
2022/06/24 06:50:51;;;;;;;;;;;;;;;;;;4956811;28;19918;-80
2022/06/24 06:53:16;;;;;;;;;;;;;;;;;;4956987;28;19911;-81
2022/06/24 06:55:41;;;;;;;;;;;;;;;;;;4957290;28;19961;-81
2022/06/24 06:58:07;;;;;;;;;;;;;;;;;;4974142;28;19924;-79
2022/06/24 07:00:32;;;;;;;;;;;;;;;;;;4924999;28;20009;-79
2022/06/24 07:02:57;;;;;;;;;;;;;;;;;;4956820;28;19918;-80
2022/06/24 07:05:23;;;;;;;;;;;;;;;;;;4940626;28;19921;-79
2022/06/24 07:07:48;;;;;;;;;;;;;;;;;;4973765;28;20005;-80
2022/06/24 07:10:13;;;;;;;;;;;;;;;;;;4974023;28;19918;-79
2022/06/24 07:12:39;;;;;;;;;;;;;;;;;;4973316;28;20342;-80
2022/06/24 07:15:04;;;;;;;;;;;;;;;;;;4956681;28;20432;-81
2022/06/24 07:17:30;;;;;;;;;;;;;;;;;;4956388;28;19914;-79
2022/06/24 07:19:55;;;;;;;;;;;;;;;;;;4956268;28;19953;-79
2022/06/24 07:22:20;;;;;;;;;;;;;;;;;;4973351;28;19914;-77
2022/06/24 07:24:46;;;;;;;;;;;;;;;;;;4940156;28;19961;-79
2022/06/24 07:27:11;;;;;;;;;;;;;;;;;;4973396;28;19968;-78
2022/06/24 07:29:37;;;;;;;;;;;;;;;;;;4973182;28;19992;-78
2022/06/24 07:32:02;;;;;;;;;;;;;;;;;;4955926;28;20373;-83
2022/06/24 07:34:30;;;;;;;;;;;;;;;;;;4973711;28;19997;-84
2022/06/24 07:36:56;;;;;;;;;;;;;;;;;;4958971;28;19918;-79
2022/06/24 07:39:21;;;;;;;;;;;;;;;;;;4973089;28;19915;-79
2022/06/24 07:41:46;;;;;;;;;;;;;;;;;;4955495;28;20301;-78
2022/06/24 07:44:12;;;;;;;;;;;;;;;;;;4972046;28;20269;-80
2022/06/24 07:46:37;;;;;;;;;;;;;;;;;;4971898;28;19981;-78
2022/06/24 07:49:03;;;;;;;;;;;;;;;;;;4955841;28;20377;-80
2022/06/24 07:51:28;;;;;;;;;;;;;;;;;;4973800;28;19949;-81
2022/06/24 07:53:53;;;;;;;;;;;;;;;;;;4971897;28;19937;-79
2022/06/24 07:59:03;;;;;;;;;;;;;;;;;;4992911;28;20018;-80
2022/06/24 08:01:28;;;;;;;;;;;;;;;;;;4975539;28;19994;-81
2022/06/24 08:03:53;;;;;;;;;;;;;;;;;;4992600;28;19913;-80
2022/06/24 08:06:19;;;;;;;;;;;;;;;;;;4975513;28;20049;-78
2022/06/24 08:08:44;;;;;;;;;;;;;;;;;;4975628;28;20017;-78
2022/06/24 08:11:10;;;;;;;;;;;;;;;;;;4992830;28;19981;-81
2022/06/24 08:13:35;;;;;;;;;;;;;;;;;;4992921;28;19921;-80
2022/06/24 08:16:03;;;;;;;;;;;;;;;;;;4972428;28;19910;-81
2022/06/24 08:18:28;;;;;;;;;;;;;;;;;;4956229;28;19921;-81
2022/06/24 08:20:54;;;;;;;;;;;;;;;;;;4973557;28;19985;-82
2022/06/24 08:23:20;;;;;;;;;;;;;;;;;;4940241;28;19922;-83
2022/06/24 08:25:45;;;;;;;;;;;;;;;;;;4940384;28;19915;-84
2022/06/24 08:28:10;;;;;;;;;;;;;;;;;;4974064;28;20309;-81
2022/06/24 08:30:36;;;;;;;;;;;;;;;;;;4973404;28;20278;-82
2022/06/24 08:33:01;;;;;;;;;;;;;;;;;;4988714;28;19996;-81
2022/06/24 08:35:27;;;;;;;;;;;;;;;;;;4991535;28;20507;-84
2022/06/24 08:37:52;;;;;;;;;;;;;;;;;;4992553;28;19956;-80
2022/06/24 08:40:17;;;;;;;;;;;;;;;;;;4958939;28;20284;-81
2022/06/24 08:42:43;;;;;;;;;;;;;;;;;;4992745;28;20285;-79
2022/06/24 08:45:08;;;;;;;;;;;;;;;;;;4991436;28;19921;-83
2022/06/24 08:47:34;;;;;;;;;;;;;;;;;;4993387;28;19921;-80
2022/06/24 08:49:59;;;;;;;;;;;;;;;;;;4996883;28;19918;-82
2022/06/24 08:52:25;;;;;;;;;;;;;;;;;;4994822;28;19920;-81
2022/06/24 08:54:50;;;;;;;;;;;;;;;;;;4963550;28;20316;-80
2022/06/24 08:57:16;;;;;;;;;;;;;;;;;;4996747;28;19914;-78
2022/06/24 08:59:45;;;;;;;;;;;;;;;;;;4996921;28;19960;-79
2022/06/24 09:02:10;;;;;;;;;;;;;;;;;;4979833;28;19913;-79
2022/06/24 09:04:36;;;;;;;;;;;;;;;;;;4980342;28;20278;-79
2022/06/24 09:07:01;;;;;;;;;;;;;;;;;;5008628;28;19973;-80
2022/06/24 09:09:28;;;;;;;;;;;;;;;;;;5007180;28;19969;-78
2022/06/24 09:12:02;;;;;;;;;;;;;;;;;;4995262;28;19914;-79
2022/06/24 09:14:27;;;;;;;;;;;;;;;;;;4976306;28;19914;-79
2022/06/24 09:16:52;;;;;;;;;;;;;;;;;;4967370;28;19988;-79
2022/06/24 09:19:18;;;;;;;;;;;;;;;;;;4978336;28;19913;-79
2022/06/24 09:21:44;;;;;;;;;;;;;;;;;;4978462;28;19960;-79
2022/06/24 09:24:09;;;;;;;;;;;;;;;;;;4995943;28;19944;-81
2022/06/24 09:26:34;;;;;;;;;;;;;;;;;;4995679;28;19913;-78
2022/06/24 09:29:00;;;;;;;;;;;;;;;;;;4996286;28;19918;-80
2022/06/24 09:31:25;;;;;;;;;;;;;;;;;;4962741;28;19918;-79
2022/06/24 09:33:52;;;;;;;;;;;;;;;;;;4980106;28;19985;-78
2022/06/24 09:36:17;;;;;;;;;;;;;;;;;;4977850;28;20012;-78
2022/06/24 09:38:43;;;;;;;;;;;;;;;;;;4977847;28;19994;-79
2022/06/24 09:41:08;;;;;;;;;;;;;;;;;;4977828;28;20313;-80
2022/06/24 09:43:34;;;;;;;;;;;;;;;;;;4977959;28;19962;-79
2022/06/24 09:45:59;;;;;;;;;;;;;;;;;;4978212;28;20282;-80
2022/06/24 09:48:26;;;;;;;;;;;;;;;;;;4995629;28;19968;-79
2022/06/24 09:50:51;;;;;;;;;;;;;;;;;;4978205;28;19922;-79
2022/06/24 09:53:17;;;;;;;;;;;;;;;;;;4962193;28;19921;-80
2022/06/24 09:55:42;;;;;;;;;;;;;;;;;;4978103;28;19921;-80
2022/06/24 09:58:07;;;;;;;;;;;;;;;;;;4978161;28;20007;-80
2022/06/24 10:00:42;;;;;;;;;;;;;;;;;;4976666;28;19916;-79
2022/06/24 10:03:07;;;;;;;;;;;;;;;;;;4977637;28;20399;-80
2022/06/24 10:05:33;;;;;;;;;;;;;;;;;;4995499;28;19913;-78
2022/06/24 10:07:58;;;;;;;;;;;;;;;;;;4978093;28;19918;-79
2022/06/24 10:10:24;;;;;;;;;;;;;;;;;;4977454;28;20233;-79
2022/06/24 10:12:49;;;;;;;;;;;;;;;;;;4961047;28;19913;-79
2022/06/24 10:15:14;;;;;;;;;;;;;;;;;;4977192;28;19914;-78
2022/06/24 10:17:41;;;;;;;;;;;;;;;;;;4961314;28;19921;-79
2022/06/24 10:20:07;;;;;;;;;;;;;;;;;;4977222;28;19929;-78
2022/06/24 10:22:33;;;;;;;;;;;;;;;;;;4976804;28;20277;-78
2022/06/24 10:24:58;;;;;;;;;;;;;;;;;;4994405;28;19909;-80
2022/06/24 10:27:23;;;;;;;;;;;;;;;;;;4994318;28;19914;-79
2022/06/24 10:29:49;;;;;;;;;;;;;;;;;;4994366;28;19917;-79
2022/06/24 10:32:14;;;;;;;;;;;;;;;;;;4976549;28;19918;-78
2022/06/24 10:34:39;;;;;;;;;;;;;;;;;;4994428;28;20374;-79
2022/06/24 10:37:05;;;;;;;;;;;;;;;;;;4994469;28;19949;-80
2022/06/24 10:39:30;;;;;;;;;;;;;;;;;;5000474;28;19921;-79
2022/06/24 10:41:56;;;;;;;;;;;;;;;;;;4993901;28;19941;-79
2022/06/24 10:44:21;;;;;;;;;;;;;;;;;;4994270;28;20004;-80
2022/06/24 10:46:47;;;;;;;;;;;;;;;;;;4976706;28;19973;-79
2022/06/24 10:49:12;;;;;;;;;;;;;;;;;;4993879;28;19925;-79
2022/06/24 10:51:37;;;;;;;;;;;;;;;;;;4960411;28;19977;-79
2022/06/24 10:54:03;;;;;;;;;;;;;;;;;;4993611;28;19945;-79
2022/06/24 10:56:28;;;;;;;;;;;;;;;;;;4993900;28;20388;-79
2022/06/24 10:58:54;;;;;;;;;;;;;;;;;;4976470;28;19913;-78
2022/06/24 11:01:19;;;;;;;;;;;;;;;;;;4993528;28;20331;-79
2022/06/24 11:03:44;;;;;;;;;;;;;;;;;;4976117;28;19999;-80
2022/06/24 11:06:10;;;;;;;;;;;;;;;;;;4976555;28;19921;-79
2022/06/24 11:08:36;;;;;;;;;;;;;;;;;;4993566;28;19914;-79
2022/06/24 11:11:01;;;;;;;;;;;;;;;;;;4976427;28;19918;-79
2022/06/24 11:13:30;;;;;;;;;;;;;;;;;;4976349;28;20038;-79
2022/06/24 11:15:58;;;;;;;;;;;;;;;;;;4976598;28;19918;-78
2022/06/24 11:18:24;;;;;;;;;;;;;;;;;;4993579;28;19921;-79
2022/06/24 11:20:49;;;;;;;;;;;;;;;;;;4976040;28;19976;-80
2022/06/24 11:23:15;;;;;;;;;;;;;;;;;;4975951;28;20396;-77
2022/06/24 11:25:40;;;;;;;;;;;;;;;;;;4960189;28;19913;-80
2022/06/24 11:28:05;;;;;;;;;;;;;;;;;;4993434;28;20374;-79
2022/06/24 11:30:31;;;;;;;;;;;;;;;;;;4975597;28;19969;-80
2022/06/24 11:32:56;;;;;;;;;;;;;;;;;;4943547;28;19917;-79
2022/06/24 11:35:22;;;;;;;;;;;;;;;;;;4993470;28;19914;-79
2022/06/24 11:37:47;;;;;;;;;;;;;;;;;;4959835;28;20040;-80
2022/06/24 11:40:13;;;;;;;;;;;;;;;;;;4960381;28;19921;-80
2022/06/24 11:42:38;;;;;;;;;;;;;;;;;;4993688;28;20262;-78
2022/06/24 11:45:07;;;;;;;;;;;;;;;;;;4976767;28;19914;-78
2022/06/24 11:47:36;;;;;;;;;;;;;;;;;;4978138;28;19937;-80
2022/06/24 11:50:01;;;;;;;;;;;;;;;;;;4960698;28;20381;-79
2022/06/24 11:52:26;;;;;;;;;;;;;;;;;;4977168;28;19914;-77
2022/06/24 11:54:52;;;;;;;;;;;;;;;;;;4994133;28;19910;-79
2022/06/24 11:57:17;;;;;;;;;;;;;;;;;;4995854;28;19918;-79
2022/06/24 11:59:43;;;;;;;;;;;;;;;;;;4976954;28;19920;-79
2022/06/24 12:02:08;;;;;;;;;;;;;;;;;;4996663;28;19954;-77
2022/06/24 12:04:33;;;;;;;;;;;;;;;;;;4994648;28;19913;-78
2022/06/24 12:06:59;;;;;;;;;;;;;;;;;;4995770;28;19921;-78
2022/06/24 12:09:24;;;;;;;;;;;;;;;;;;4979568;28;19921;-80
2022/06/24 12:11:49;;;;;;;;;;;;;;;;;;4982244;28;19977;-80
2022/06/24 12:14:16;;;;;;;;;;;;;;;;;;4987208;28;19921;-77
2022/06/24 12:16:41;;;;;;;;;;;;;;;;;;4980094;28;19914;-78
2022/06/24 12:19:06;;;;;;;;;;;;;;;;;;4967600;28;19920;-76
2022/06/24 12:21:33;;;;;;;;;;;;;;;;;;4996898;28;19914;-80
2022/06/24 12:23:58;;;;;;;;;;;;;;;;;;4948629;28;20384;-78
2022/06/24 12:26:27;;;;;;;;;;;;;;;;;;5001000;28;19914;-78
2022/06/24 12:28:52;;;;;;;;;;;;;;;;;;4967752;28;20364;-78
2022/06/24 12:31:18;;;;;;;;;;;;;;;;;;4984287;28;20024;-80
2022/06/24 12:33:43;;;;;;;;;;;;;;;;;;5010567;23;19926;-84
2022/06/24 12:36:09;;;;;;;;;;;;;;;;;;4979446;28;19914;-82
2022/06/24 12:38:34;;;;;;;;;;;;;;;;;;4992777;28;19921;-82
2022/06/24 12:40:59;;;;;;;;;;;;;;;;;;4984486;28;19914;-83
2022/06/24 12:43:25;;;;;;;;;;;;;;;;;;4980800;28;19914;-83
2022/06/24 12:45:51;;;;;;;;;;;;;;;;;;4964720;28;20368;-83
2022/06/24 12:51:17;;;;;;;;;;;;;;;;;;4888111;29;19919;-81
2022/06/24 12:53:45;;;;;;;;;;;;;;;;;;4964041;28;19993;-83
2022/06/24 12:56:14;;;;;;;;;;;;;;;;;;4963069;28;19921;-83
2022/06/24 12:58:39;;;;;;;;;;;;;;;;;;4962475;28;19914;-83
2022/06/24 13:01:08;;;;;;;;;;;;;;;;;;4962406;28;20400;-82
2022/06/24 13:03:37;;;;;;;;;;;;;;;;;;4962970;28;19918;-83
2022/06/24 13:06:02;;;;;;;;;;;;;;;;;;4946389;28;20373;-82
2022/06/24 13:08:31;;;;;;;;;;;;;;;;;;4932268;28;19914;-82
2022/06/24 13:10:57;;;;;;;;;;;;;;;;;;4963180;28;19930;-82
2022/06/24 13:13:22;;;;;;;;;;;;;;;;;;4947298;28;19917;-84
2022/06/24 13:15:53;;;;;;;;;;;;;;;;;;4946852;28;19921;-83
2022/06/24 13:18:18;;;;;;;;;;;;;;;;;;4979472;28;19925;-83
2022/06/24 13:20:44;;;;;;;;;;;;;;;;;;4962274;28;20191;-84
2022/06/24 13:23:09;;;;;;;;;;;;;;;;;;4961888;28;20028;-84
2022/06/24 13:25:35;;;;;;;;;;;;;;;;;;4962375;28;19914;-84
2022/06/24 13:28:00;;;;;;;;;;;;;;;;;;4930935;28;19922;-84
2022/06/24 13:30:26;;;;;;;;;;;;;;;;;;4945379;28;19922;-85
2022/06/24 13:32:59;;;;;;;;;;;;;;;;;;4978130;28;20381;-84
2022/06/24 13:35:24;;;;;;;;;;;;;;;;;;4960638;28;19929;-85
2022/06/24 13:37:49;;;;;;;;;;;;;;;;;;4946062;28;20422;-84
2022/06/24 13:40:15;;;;;;;;;;;;;;;;;;4928420;28;19925;-86
2022/06/24 13:42:41;;;;;;;;;;;;;;;;;;4960011;28;19921;-86
2022/06/24 13:45:07;;;;;;;;;;;;;;;;;;4944675;28;20364;-84
2022/06/24 13:47:32;;;;;;;;;;;;;;;;;;4961077;28;19914;-85
2022/06/24 13:50:01;;;;;;;;;;;;;;;;;;4929496;28;20423;-85
2022/06/24 13:52:27;;;;;;;;;;;;;;;;;;4945555;28;20399;-85
2022/06/24 13:54:53;;;;;;;;;;;;;;;;;;4945257;28;19921;-85
2022/06/24 13:57:21;;;;;;;;;;;;;;;;;;4962645;28;19914;-84
2022/06/24 13:59:49;;;;;;;;;;;;;;;;;;4947532;28;19953;-85
2022/06/24 14:02:15;;;;;;;;;;;;;;;;;;4930242;28;20004;-85
2022/06/24 14:04:44;;;;;;;;;;;;;;;;;;4930638;28;19918;-84
2022/06/24 14:07:10;;;;;;;;;;;;;;;;;;4929899;28;19994;-84
2022/06/24 14:09:35;;;;;;;;;;;;;;;;;;4931648;28;19921;-83
2022/06/24 14:12:01;;;;;;;;;;;;;;;;;;4929838;28;19925;-85
2022/06/24 14:14:26;;;;;;;;;;;;;;;;;;4944173;28;19974;-86
2022/06/24 14:16:52;;;;;;;;;;;;;;;;;;4962927;28;19997;-86
2022/06/24 14:19:17;;;;;;;;;;;;;;;;;;4959910;28;20329;-83
2022/06/24 14:21:42;;;;;;;;;;;;;;;;;;4977339;28;19953;-84
2022/06/24 14:26:52;;;;;;;;;;;;;;;;;;4959872;28;19921;-85
2022/06/24 14:29:18;;;;;;;;;;;;;;;;;;4943851;28;19915;-84
2022/06/24 14:31:44;;;;;;;;;;;;;;;;;;4943321;28;19918;-84
2022/06/24 14:34:09;;;;;;;;;;;;;;;;;;4948689;28;19918;-84
2022/06/24 14:36:34;;;;;;;;;;;;;;;;;;4969819;28;19910;-86
2022/06/24 14:41:47;;;;;;;;;;;;;;;;;;4976941;28;19914;-85
2022/06/24 14:44:12;;;;;;;;;;;;;;;;;;4977325;28;19921;-84
2022/06/24 14:46:40;;;;;;;;;;;;;;;;;;4959052;28;20441;-84
2022/06/24 14:49:06;;;;;;;;;;;;;;;;;;4942992;28;19957;-83
2022/06/24 14:51:31;;;;;;;;;;;;;;;;;;4976402;28;20178;-85
2022/06/24 14:53:58;;;;;;;;;;;;;;;;;;4978259;28;19968;-86
2022/06/24 14:56:24;;;;;;;;;;;;;;;;;;4928976;28;19914;-85
2022/06/24 14:58:49;;;;;;;;;;;;;;;;;;4944290;28;19921;-85
2022/06/24 15:01:15;;;;;;;;;;;;;;;;;;4928639;28;19982;-85
2022/06/24 15:03:43;;;;;;;;;;;;;;;;;;4946199;28;19914;-84
2022/06/24 15:06:09;;;;;;;;;;;;;;;;;;4929552;28;19989;-85
2022/06/24 15:08:34;;;;;;;;;;;;;;;;;;4927335;28;20372;-85
2022/06/24 15:11:00;;;;;;;;;;;;;;;;;;4959526;28;19981;-86
2022/06/24 15:13:25;;;;;;;;;;;;;;;;;;4943009;28;19918;-84
2022/06/24 15:15:51;;;;;;;;;;;;;;;;;;4943098;28;19914;-84
2022/06/24 15:18:16;;;;;;;;;;;;;;;;;;4943107;28;19925;-85
2022/06/24 15:20:42;;;;;;;;;;;;;;;;;;4958832;28;20392;-83
2022/06/24 15:23:07;;;;;;;;;;;;;;;;;;4942823;28;20341;-85
2022/06/24 15:25:33;;;;;;;;;;;;;;;;;;4958388;28;20328;-84
2022/06/24 15:27:58;;;;;;;;;;;;;;;;;;4958258;28;19922;-85
2022/06/24 15:30:24;;;;;;;;;;;;;;;;;;4958174;28;19918;-84
2022/06/24 15:32:50;;;;;;;;;;;;;;;;;;4976849;28;20258;-85
2022/06/24 15:35:16;;;;;;;;;;;;;;;;;;4975505;28;19949;-86
2022/06/24 15:37:41;;;;;;;;;;;;;;;;;;4959118;28;19914;-85
2022/06/24 15:40:07;;;;;;;;;;;;;;;;;;4959367;28;19918;-85
2022/06/24 15:42:32;;;;;;;;;;;;;;;;;;4943304;28;19922;-85
2022/06/24 15:44:58;;;;;;;;;;;;;;;;;;4944377;28;20000;-84
2022/06/24 15:47:23;;;;;;;;;;;;;;;;;;4926112;28;20259;-85
2022/06/24 15:49:49;;;;;;;;;;;;;;;;;;4925578;28;19915;-87
2022/06/24 15:52:14;;;;;;;;;;;;;;;;;;4924999;28;20021;-85
2022/06/24 15:54:39;;;;;;;;;;;;;;;;;;4925182;28;19914;-85
2022/06/24 15:57:05;;;;;;;;;;;;;;;;;;4941503;28;20305;-86
2022/06/24 15:59:33;;;;;;;;;;;;;;;;;;4925791;28;19951;-86
2022/06/24 16:01:59;;;;;;;;;;;;;;;;;;4940664;28;19914;-86
2022/06/24 16:04:24;;;;;;;;;;;;;;;;;;4941045;28;19914;-85
2022/06/24 16:06:50;;;;;;;;;;;;;;;;;;4940286;28;19921;-84
2022/06/24 16:09:15;;;;;;;;;;;;;;;;;;4942598;28;19969;-85
2022/06/24 16:14:29;;;;;;;;;;;;;;;;;;4960374;28;19914;-86
2022/06/24 16:16:54;;;;;;;;;;;;;;;;;;4961424;28;19921;-85
2022/06/24 16:19:20;;;;;;;;;;;;;;;;;;4962809;28;19925;-84
2022/06/24 16:21:45;;;;;;;;;;;;;;;;;;4965072;28;19914;-84
2022/06/24 16:24:11;;;;;;;;;;;;;;;;;;4933506;28;19914;-85
2022/06/24 16:29:21;;;;;;;;;;;;;;;;;;4958280;28;19945;-85
2022/06/24 16:31:46;;;;;;;;;;;;;;;;;;4940836;28;19961;-84
2022/06/24 16:34:11;;;;;;;;;;;;;;;;;;4975790;28;19974;-85
2022/06/24 16:36:37;;;;;;;;;;;;;;;;;;4942045;28;19939;-85
2022/06/24 16:39:02;;;;;;;;;;;;;;;;;;4940684;28;20366;-86
2022/06/24 16:41:28;;;;;;;;;;;;;;;;;;4941642;28;19987;-85
2022/06/24 16:43:53;;;;;;;;;;;;;;;;;;4940790;28;19925;-86
2022/06/24 16:46:22;;;;;;;;;;;;;;;;;;4940530;28;19961;-86
2022/06/24 16:48:47;;;;;;;;;;;;;;;;;;4957155;28;19914;-84
2022/06/24 16:51:14;;;;;;;;;;;;;;;;;;4973080;28;20092;-85
2022/06/24 16:53:43;;;;;;;;;;;;;;;;;;4956347;28;19910;-84
2022/06/24 16:56:15;;;;;;;;;;;;;;;;;;4941192;28;19914;-84
2022/06/24 16:58:41;;;;;;;;;;;;;;;;;;4956781;28;19961;-83
2022/06/24 17:01:06;;;;;;;;;;;;;;;;;;4973199;28;19919;-85
2022/06/24 17:03:32;;;;;;;;;;;;;;;;;;4925331;28;19914;-85